sensor_id;sensor_type;location;lat;lon;timestamp;temperature;humidity
10980;DHT22;5543;51.734;8.744;2023-06-14T00:01:05;15.50;68.40
10980;DHT22;5543;51.734;8.744;2023-06-14T00:03:34;15.40;68.80
10980;DHT22;5543;51.734;8.744;2023-06-14T00:06:02;15.40;68.50
10980;DHT22;5543;51.734;8.744;2023-06-14T00:08:30;15.40;68.40
10980;DHT22;5543;51.734;8.744;2023-06-14T00:10:58;15.40;68.50
10980;DHT22;5543;51.734;8.744;2023-06-14T00:13:26;15.30;68.40
10980;DHT22;5543;51.734;8.744;2023-06-14T00:15:56;15.40;68.60
10980;DHT22;5543;51.734;8.744;2023-06-14T00:18:24;15.30;68.40
10980;DHT22;5543;51.734;8.744;2023-06-14T00:20:56;15.30;68.50
10980;DHT22;5543;51.734;8.744;2023-06-14T00:23:24;15.30;69.60
10980;DHT22;5543;51.734;8.744;2023-06-14T00:25:52;15.30;69.00
10980;DHT22;5543;51.734;8.744;2023-06-14T00:28:20;15.70;69.30
10980;DHT22;5543;51.734;8.744;2023-06-14T00:30:48;15.30;69.70
10980;DHT22;5543;51.734;8.744;2023-06-14T00:33:18;15.30;69.90
10980;DHT22;5543;51.734;8.744;2023-06-14T00:35:46;15.30;69.80
10980;DHT22;5543;51.734;8.744;2023-06-14T00:38:14;15.30;70.40
10980;DHT22;5543;51.734;8.744;2023-06-14T00:40:43;15.20;70.00
10980;DHT22;5543;51.734;8.744;2023-06-14T00:43:11;15.20;69.80
10980;DHT22;5543;51.734;8.744;2023-06-14T00:45:39;15.20;70.00
10980;DHT22;5543;51.734;8.744;2023-06-14T00:48:08;15.10;69.50
10980;DHT22;5543;51.734;8.744;2023-06-14T00:50:37;15.10;70.20
10980;DHT22;5543;51.734;8.744;2023-06-14T00:53:07;15.10;70.20
10980;DHT22;5543;51.734;8.744;2023-06-14T00:55:35;15.10;70.30
10980;DHT22;5543;51.734;8.744;2023-06-14T00:58:03;15.10;70.10
10980;DHT22;5543;51.734;8.744;2023-06-14T01:00:31;15.10;70.20
10980;DHT22;5543;51.734;8.744;2023-06-14T01:03:00;15.10;70.00
10980;DHT22;5543;51.734;8.744;2023-06-14T01:05:30;15.10;69.90
10980;DHT22;5543;51.734;8.744;2023-06-14T01:08:24;15.00;70.00
10980;DHT22;5543;51.734;8.744;2023-06-14T01:11:12;15.00;70.20
10980;DHT22;5543;51.734;8.744;2023-06-14T01:13:43;15.00;70.60
10980;DHT22;5543;51.734;8.744;2023-06-14T01:16:14;14.90;70.50
10980;DHT22;5543;51.734;8.744;2023-06-14T01:18:44;14.90;69.80
10980;DHT22;5543;51.734;8.744;2023-06-14T01:21:21;14.90;69.70
10980;DHT22;5543;51.734;8.744;2023-06-14T01:23:50;14.90;69.80
10980;DHT22;5543;51.734;8.744;2023-06-14T01:26:20;14.90;70.00
10980;DHT22;5543;51.734;8.744;2023-06-14T01:28:49;15.00;70.40
10980;DHT22;5543;51.734;8.744;2023-06-14T01:31:20;14.90;70.90
10980;DHT22;5543;51.734;8.744;2023-06-14T01:33:50;14.80;71.50
10980;DHT22;5543;51.734;8.744;2023-06-14T01:36:19;14.80;71.30
10980;DHT22;5543;51.734;8.744;2023-06-14T01:38:50;14.70;71.50
10980;DHT22;5543;51.734;8.744;2023-06-14T01:41:21;14.70;71.60
10980;DHT22;5543;51.734;8.744;2023-06-14T01:43:50;14.70;72.10
10980;DHT22;5543;51.734;8.744;2023-06-14T01:46:19;14.70;72.20
10980;DHT22;5543;51.734;8.744;2023-06-14T01:48:48;14.70;72.70
10980;DHT22;5543;51.734;8.744;2023-06-14T01:51:16;14.60;72.60
10980;DHT22;5543;51.734;8.744;2023-06-14T01:53:44;14.60;72.80
10980;DHT22;5543;51.734;8.744;2023-06-14T01:56:14;14.40;73.10
10980;DHT22;5543;51.734;8.744;2023-06-14T01:58:42;14.40;73.20
10980;DHT22;5543;51.734;8.744;2023-06-14T02:01:10;14.40;73.10
10980;DHT22;5543;51.734;8.744;2023-06-14T02:03:39;14.20;72.70
10980;DHT22;5543;51.734;8.744;2023-06-14T02:06:07;14.30;73.40
10980;DHT22;5543;51.734;8.744;2023-06-14T02:08:37;14.20;74.40
10980;DHT22;5543;51.734;8.744;2023-06-14T02:11:05;14.20;75.50
10980;DHT22;5543;51.734;8.744;2023-06-14T02:13:34;14.30;76.40
10980;DHT22;5543;51.734;8.744;2023-06-14T02:16:02;14.10;77.30
10980;DHT22;5543;51.734;8.744;2023-06-14T02:18:31;14.10;77.50
10980;DHT22;5543;51.734;8.744;2023-06-14T02:20:58;14.00;76.80
10980;DHT22;5543;51.734;8.744;2023-06-14T02:23:26;14.10;76.50
10980;DHT22;5543;51.734;8.744;2023-06-14T02:25:54;13.90;77.70
10980;DHT22;5543;51.734;8.744;2023-06-14T02:28:23;13.80;77.30
10980;DHT22;5543;51.734;8.744;2023-06-14T02:30:52;13.80;77.00
10980;DHT22;5543;51.734;8.744;2023-06-14T02:33:20;13.70;78.10
10980;DHT22;5543;51.734;8.744;2023-06-14T02:35:48;13.60;77.80
10980;DHT22;5543;51.734;8.744;2023-06-14T02:38:16;13.60;78.40
10980;DHT22;5543;51.734;8.744;2023-06-14T02:40:44;13.60;78.70
10980;DHT22;5543;51.734;8.744;2023-06-14T02:43:12;13.60;78.70
10980;DHT22;5543;51.734;8.744;2023-06-14T02:45:40;13.30;78.80
10980;DHT22;5543;51.734;8.744;2023-06-14T02:48:10;13.30;79.30
10980;DHT22;5543;51.734;8.744;2023-06-14T02:50:38;13.20;79.80
10980;DHT22;5543;51.734;8.744;2023-06-14T02:53:06;13.20;80.40
10980;DHT22;5543;51.734;8.744;2023-06-14T02:55:34;13.30;80.90
10980;DHT22;5543;51.734;8.744;2023-06-14T02:58:06;13.10;80.60
10980;DHT22;5543;51.734;8.744;2023-06-14T03:00:34;13.00;80.90
10980;DHT22;5543;51.734;8.744;2023-06-14T03:03:03;13.00;81.20
10980;DHT22;5543;51.734;8.744;2023-06-14T03:05:32;13.00;81.40
10980;DHT22;5543;51.734;8.744;2023-06-14T03:08:00;13.00;81.40
10980;DHT22;5543;51.734;8.744;2023-06-14T03:10:29;12.90;82.10
10980;DHT22;5543;51.734;8.744;2023-06-14T03:12:57;12.90;83.00
10980;DHT22;5543;51.734;8.744;2023-06-14T03:15:25;12.90;83.30
10980;DHT22;5543;51.734;8.744;2023-06-14T03:17:54;12.80;83.40
10980;DHT22;5543;51.734;8.744;2023-06-14T03:20:22;12.80;83.90
10980;DHT22;5543;51.734;8.744;2023-06-14T03:22:52;12.80;84.00
10980;DHT22;5543;51.734;8.744;2023-06-14T03:25:21;12.80;84.40
10980;DHT22;5543;51.734;8.744;2023-06-14T03:27:49;12.80;84.60
10980;DHT22;5543;51.734;8.744;2023-06-14T03:30:17;13.10;84.80
10980;DHT22;5543;51.734;8.744;2023-06-14T03:32:45;12.80;85.00
10980;DHT22;5543;51.734;8.744;2023-06-14T03:35:13;13.40;85.70
10980;DHT22;5543;51.734;8.744;2023-06-14T03:37:44;12.80;85.20
10980;DHT22;5543;51.734;8.744;2023-06-14T03:40:15;12.70;85.80
10980;DHT22;5543;51.734;8.744;2023-06-14T03:42:44;12.80;87.60
10980;DHT22;5543;51.734;8.744;2023-06-14T03:45:12;12.60;88.30
10980;DHT22;5543;51.734;8.744;2023-06-14T03:47:40;12.50;88.90
10980;DHT22;5543;51.734;8.744;2023-06-14T03:50:09;12.40;90.10
10980;DHT22;5543;51.734;8.744;2023-06-14T03:52:37;12.40;90.60
10980;DHT22;5543;51.734;8.744;2023-06-14T03:55:06;12.40;90.90
10980;DHT22;5543;51.734;8.744;2023-06-14T03:57:38;12.50;91.20
10980;DHT22;5543;51.734;8.744;2023-06-14T04:00:09;12.50;91.40
10980;DHT22;5543;51.734;8.744;2023-06-14T04:02:38;12.50;91.50
10980;DHT22;5543;51.734;8.744;2023-06-14T04:05:07;12.50;91.80
10980;DHT22;5543;51.734;8.744;2023-06-14T04:07:35;12.50;92.00
10980;DHT22;5543;51.734;8.744;2023-06-14T04:10:07;12.50;92.20
10980;DHT22;5543;51.734;8.744;2023-06-14T04:12:35;12.60;92.30
10980;DHT22;5543;51.734;8.744;2023-06-14T04:15:06;12.80;92.50
10980;DHT22;5543;51.734;8.744;2023-06-14T04:17:47;12.70;92.60
10980;DHT22;5543;51.734;8.744;2023-06-14T04:20:15;12.70;92.80
10980;DHT22;5543;51.734;8.744;2023-06-14T04:22:44;12.70;93.10
10980;DHT22;5543;51.734;8.744;2023-06-14T04:25:12;12.80;93.40
10980;DHT22;5543;51.734;8.744;2023-06-14T04:27:40;12.80;93.70
10980;DHT22;5543;51.734;8.744;2023-06-14T04:30:10;12.90;96.20
10980;DHT22;5543;51.734;8.744;2023-06-14T04:32:40;12.80;99.90
10980;DHT22;5543;51.734;8.744;2023-06-14T04:35:09;12.70;99.90
10980;DHT22;5543;51.734;8.744;2023-06-14T04:37:38;12.50;99.90
10980;DHT22;5543;51.734;8.744;2023-06-14T04:40:09;12.30;99.90
10980;DHT22;5543;51.734;8.744;2023-06-14T04:42:38;12.10;99.90
10980;DHT22;5543;51.734;8.744;2023-06-14T04:45:09;12.10;99.90
10980;DHT22;5543;51.734;8.744;2023-06-14T04:47:38;12.00;99.90
10980;DHT22;5543;51.734;8.744;2023-06-14T04:50:08;12.00;99.90
10980;DHT22;5543;51.734;8.744;2023-06-14T04:52:36;12.00;99.90
10980;DHT22;5543;51.734;8.744;2023-06-14T04:55:05;12.20;99.90
10980;DHT22;5543;51.734;8.744;2023-06-14T04:57:33;12.10;99.90
10980;DHT22;5543;51.734;8.744;2023-06-14T05:00:02;12.00;99.90
10980;DHT22;5543;51.734;8.744;2023-06-14T05:02:32;12.20;99.90
10980;DHT22;5543;51.734;8.744;2023-06-14T05:05:02;12.20;99.90
10980;DHT22;5543;51.734;8.744;2023-06-14T05:07:33;12.30;99.90
10980;DHT22;5543;51.734;8.744;2023-06-14T05:10:01;12.30;99.90
10980;DHT22;5543;51.734;8.744;2023-06-14T05:12:29;12.40;99.90
10980;DHT22;5543;51.734;8.744;2023-06-14T05:14:57;12.40;99.90
10980;DHT22;5543;51.734;8.744;2023-06-14T05:17:26;12.50;99.90
10980;DHT22;5543;51.734;8.744;2023-06-14T05:19:57;12.60;99.90
10980;DHT22;5543;51.734;8.744;2023-06-14T05:22:27;12.70;99.90
10980;DHT22;5543;51.734;8.744;2023-06-14T05:24:55;12.70;99.90
10980;DHT22;5543;51.734;8.744;2023-06-14T05:27:23;13.00;99.90
10980;DHT22;5543;51.734;8.744;2023-06-14T05:29:51;12.90;99.90
10980;DHT22;5543;51.734;8.744;2023-06-14T05:32:22;13.00;99.90
10980;DHT22;5543;51.734;8.744;2023-06-14T05:34:50;13.10;99.90
10980;DHT22;5543;51.734;8.744;2023-06-14T05:37:20;13.40;99.90
10980;DHT22;5543;51.734;8.744;2023-06-14T05:39:48;13.50;99.90
10980;DHT22;5543;51.734;8.744;2023-06-14T05:42:16;13.70;99.90
10980;DHT22;5543;51.734;8.744;2023-06-14T05:44:44;14.00;99.90
10980;DHT22;5543;51.734;8.744;2023-06-14T05:47:12;14.20;99.90
10980;DHT22;5543;51.734;8.744;2023-06-14T05:49:40;14.40;99.90
10980;DHT22;5543;51.734;8.744;2023-06-14T05:52:09;14.70;99.90
10980;DHT22;5543;51.734;8.744;2023-06-14T05:54:38;14.80;99.90
10980;DHT22;5543;51.734;8.744;2023-06-14T05:57:06;14.90;99.90
10980;DHT22;5543;51.734;8.744;2023-06-14T05:59:34;15.10;99.90
10980;DHT22;5543;51.734;8.744;2023-06-14T06:02:03;15.20;99.90
10980;DHT22;5543;51.734;8.744;2023-06-14T06:04:31;15.40;99.80
10980;DHT22;5543;51.734;8.744;2023-06-14T06:07:00;15.50;99.30
10980;DHT22;5543;51.734;8.744;2023-06-14T06:09:27;15.60;99.20
10980;DHT22;5543;51.734;8.744;2023-06-14T06:11:57;15.70;98.90
10980;DHT22;5543;51.734;8.744;2023-06-14T06:14:25;15.80;98.20
10980;DHT22;5543;51.734;8.744;2023-06-14T06:16:53;15.90;97.80
10980;DHT22;5543;51.734;8.744;2023-06-14T06:19:21;16.00;97.70
10980;DHT22;5543;51.734;8.744;2023-06-14T06:21:50;16.00;97.30
10980;DHT22;5543;51.734;8.744;2023-06-14T06:24:18;16.20;97.70
10980;DHT22;5543;51.734;8.744;2023-06-14T06:26:46;16.30;96.40
10980;DHT22;5543;51.734;8.744;2023-06-14T06:29:15;16.40;96.70
10980;DHT22;5543;51.734;8.744;2023-06-14T06:31:43;16.50;96.90
10980;DHT22;5543;51.734;8.744;2023-06-14T06:34:12;16.60;96.60
10980;DHT22;5543;51.734;8.744;2023-06-14T06:36:40;16.70;96.30
10980;DHT22;5543;51.734;8.744;2023-06-14T06:39:09;16.80;96.50
10980;DHT22;5543;51.734;8.744;2023-06-14T06:41:38;16.90;97.00
10980;DHT22;5543;51.734;8.744;2023-06-14T06:44:06;17.00;96.30
10980;DHT22;5543;51.734;8.744;2023-06-14T06:46:36;17.10;95.00
10980;DHT22;5543;51.734;8.744;2023-06-14T06:49:07;17.10;95.00
10980;DHT22;5543;51.734;8.744;2023-06-14T06:51:35;17.30;94.50
10980;DHT22;5543;51.734;8.744;2023-06-14T06:54:03;17.40;93.50
10980;DHT22;5543;51.734;8.744;2023-06-14T06:56:32;17.50;93.00
10980;DHT22;5543;51.734;8.744;2023-06-14T06:59:00;17.70;93.80
10980;DHT22;5543;51.734;8.744;2023-06-14T07:01:29;17.80;93.50
10980;DHT22;5543;51.734;8.744;2023-06-14T07:03:58;17.90;92.60
10980;DHT22;5543;51.734;8.744;2023-06-14T07:06:26;18.10;93.80
10980;DHT22;5543;51.734;8.744;2023-06-14T07:08:54;18.10;92.60
10980;DHT22;5543;51.734;8.744;2023-06-14T07:11:28;18.30;92.90
10980;DHT22;5543;51.734;8.744;2023-06-14T07:13:56;18.40;91.10
10980;DHT22;5543;51.734;8.744;2023-06-14T07:16:24;18.40;91.80
10980;DHT22;5543;51.734;8.744;2023-06-14T07:18:52;18.50;90.80
10980;DHT22;5543;51.734;8.744;2023-06-14T07:21:22;18.50;92.00
10980;DHT22;5543;51.734;8.744;2023-06-14T07:23:50;18.60;91.90
10980;DHT22;5543;51.734;8.744;2023-06-14T07:26:18;18.80;91.00
10980;DHT22;5543;51.734;8.744;2023-06-14T07:28:46;18.90;90.20
10980;DHT22;5543;51.734;8.744;2023-06-14T07:31:15;19.00;91.30
10980;DHT22;5543;51.734;8.744;2023-06-14T07:33:45;19.10;90.00
10980;DHT22;5543;51.734;8.744;2023-06-14T07:36:14;19.20;90.20
10980;DHT22;5543;51.734;8.744;2023-06-14T07:38:43;19.20;88.20
10980;DHT22;5543;51.734;8.744;2023-06-14T07:41:11;19.30;89.20
10980;DHT22;5543;51.734;8.744;2023-06-14T07:43:39;19.40;89.00
10980;DHT22;5543;51.734;8.744;2023-06-14T07:46:07;19.40;88.10
10980;DHT22;5543;51.734;8.744;2023-06-14T07:48:36;19.50;90.00
10980;DHT22;5543;51.734;8.744;2023-06-14T07:51:04;19.60;89.10
10980;DHT22;5543;51.734;8.744;2023-06-14T07:53:33;19.70;86.90
10980;DHT22;5543;51.734;8.744;2023-06-14T07:56:02;19.70;85.50
10980;DHT22;5543;51.734;8.744;2023-06-14T07:58:31;19.90;89.20
10980;DHT22;5543;51.734;8.744;2023-06-14T08:00:58;20.20;89.40
10980;DHT22;5543;51.734;8.744;2023-06-14T08:03:28;20.30;85.70
10980;DHT22;5543;51.734;8.744;2023-06-14T08:05:58;20.30;84.00
10980;DHT22;5543;51.734;8.744;2023-06-14T08:08:27;20.40;84.10
10980;DHT22;5543;51.734;8.744;2023-06-14T08:10:55;20.50;82.40
10980;DHT22;5543;51.734;8.744;2023-06-14T08:13:25;20.60;82.60
10980;DHT22;5543;51.734;8.744;2023-06-14T08:15:53;20.70;80.60
10980;DHT22;5543;51.734;8.744;2023-06-14T08:18:22;20.70;80.30
10980;DHT22;5543;51.734;8.744;2023-06-14T08:20:50;20.70;83.80
10980;DHT22;5543;51.734;8.744;2023-06-14T08:23:19;21.00;84.30
10980;DHT22;5543;51.734;8.744;2023-06-14T08:25:48;21.40;83.60
10980;DHT22;5543;51.734;8.744;2023-06-14T08:28:16;21.80;80.60
10980;DHT22;5543;51.734;8.744;2023-06-14T08:30:45;22.00;79.60
10980;DHT22;5543;51.734;8.744;2023-06-14T08:33:13;22.40;80.60
10980;DHT22;5543;51.734;8.744;2023-06-14T08:35:43;22.90;76.70
10980;DHT22;5543;51.734;8.744;2023-06-14T08:38:11;23.00;75.20
10980;DHT22;5543;51.734;8.744;2023-06-14T08:40:41;23.60;75.90
10980;DHT22;5543;51.734;8.744;2023-06-14T08:43:09;23.70;73.00
10980;DHT22;5543;51.734;8.744;2023-06-14T08:45:37;24.60;76.60
10980;DHT22;5543;51.734;8.744;2023-06-14T08:48:07;25.40;74.60
10980;DHT22;5543;51.734;8.744;2023-06-14T08:50:36;25.70;69.50
10980;DHT22;5543;51.734;8.744;2023-06-14T08:53:08;26.10;68.10
10980;DHT22;5543;51.734;8.744;2023-06-14T08:55:40;26.90;70.70
10980;DHT22;5543;51.734;8.744;2023-06-14T08:58:09;27.40;64.20
10980;DHT22;5543;51.734;8.744;2023-06-14T09:00:42;27.50;61.00
10980;DHT22;5543;51.734;8.744;2023-06-14T09:03:13;27.80;62.10
10980;DHT22;5543;51.734;8.744;2023-06-14T09:05:41;28.00;60.60
10980;DHT22;5543;51.734;8.744;2023-06-14T09:08:10;28.00;60.00
10980;DHT22;5543;51.734;8.744;2023-06-14T09:10:40;27.40;58.80
10980;DHT22;5543;51.734;8.744;2023-06-14T09:13:08;26.30;58.40
10980;DHT22;5543;51.734;8.744;2023-06-14T09:15:36;25.20;61.00
10980;DHT22;5543;51.734;8.744;2023-06-14T09:18:04;24.40;62.80
10980;DHT22;5543;51.734;8.744;2023-06-14T09:20:35;24.40;65.70
10980;DHT22;5543;51.734;8.744;2023-06-14T09:23:04;25.00;63.00
10980;DHT22;5543;51.734;8.744;2023-06-14T09:25:41;25.30;61.50
10980;DHT22;5543;51.734;8.744;2023-06-14T09:28:11;24.80;62.50
10980;DHT22;5543;51.734;8.744;2023-06-14T09:30:39;24.80;64.70
10980;DHT22;5543;51.734;8.744;2023-06-14T09:33:07;25.60;62.00
10980;DHT22;5543;51.734;8.744;2023-06-14T09:35:37;26.30;63.30
10980;DHT22;5543;51.734;8.744;2023-06-14T09:38:05;26.00;58.50
10980;DHT22;5543;51.734;8.744;2023-06-14T09:40:35;26.10;59.50
10980;DHT22;5543;51.734;8.744;2023-06-14T09:43:09;26.40;59.70
10980;DHT22;5543;51.734;8.744;2023-06-14T09:45:43;26.80;62.30
10980;DHT22;5543;51.734;8.744;2023-06-14T09:48:13;27.10;57.70
10980;DHT22;5543;51.734;8.744;2023-06-14T09:50:47;27.20;58.20
10980;DHT22;5543;51.734;8.744;2023-06-14T09:53:20;28.20;61.70
10980;DHT22;5543;51.734;8.744;2023-06-14T09:55:52;28.80;57.60
10980;DHT22;5543;51.734;8.744;2023-06-14T09:58:23;29.50;59.40
10980;DHT22;5543;51.734;8.744;2023-06-14T10:00:54;29.80;52.70
10980;DHT22;5543;51.734;8.744;2023-06-14T10:03:27;30.00;53.20
10980;DHT22;5543;51.734;8.744;2023-06-14T10:06:11;30.30;52.30
10980;DHT22;5543;51.734;8.744;2023-06-14T10:08:40;30.40;52.50
10980;DHT22;5543;51.734;8.744;2023-06-14T10:11:08;30.50;51.70
10980;DHT22;5543;51.734;8.744;2023-06-14T10:13:37;30.60;50.80
10980;DHT22;5543;51.734;8.744;2023-06-14T10:16:10;30.10;52.80
10980;DHT22;5543;51.734;8.744;2023-06-14T10:18:45;29.50;50.30
10980;DHT22;5543;51.734;8.744;2023-06-14T10:21:23;28.50;52.40
10980;DHT22;5543;51.734;8.744;2023-06-14T10:23:56;28.00;55.90
10980;DHT22;5543;51.734;8.744;2023-06-14T10:26:27;28.20;53.20
10980;DHT22;5543;51.734;8.744;2023-06-14T10:28:57;28.90;53.90
10980;DHT22;5543;51.734;8.744;2023-06-14T10:31:43;29.30;52.60
10980;DHT22;5543;51.734;8.744;2023-06-14T10:34:11;29.60;51.40
10980;DHT22;5543;51.734;8.744;2023-06-14T10:36:42;30.20;53.00
10980;DHT22;5543;51.734;8.744;2023-06-14T10:39:15;31.40;52.20
10980;DHT22;5543;51.734;8.744;2023-06-14T10:41:52;31.20;50.20
10980;DHT22;5543;51.734;8.744;2023-06-14T10:44:40;31.50;49.00
10980;DHT22;5543;51.734;8.744;2023-06-14T10:47:10;32.20;48.10
10980;DHT22;5543;51.734;8.744;2023-06-14T10:49:41;32.40;47.60
10980;DHT22;5543;51.734;8.744;2023-06-14T10:52:15;32.10;47.30
10980;DHT22;5543;51.734;8.744;2023-06-14T10:55:09;31.20;47.60
10980;DHT22;5543;51.734;8.744;2023-06-14T10:57:41;30.50;49.00
10980;DHT22;5543;51.734;8.744;2023-06-14T11:00:20;30.80;48.20
10980;DHT22;5543;51.734;8.744;2023-06-14T11:05:54;29.00;49.70
10980;DHT22;5543;51.734;8.744;2023-06-14T11:11:22;29.30;53.00
10980;DHT22;5543;51.734;8.744;2023-06-14T11:13:51;31.00;49.10
10980;DHT22;5543;51.734;8.744;2023-06-14T11:16:19;31.90;47.40
10980;DHT22;5543;51.734;8.744;2023-06-14T11:18:49;32.30;49.40
10980;DHT22;5543;51.734;8.744;2023-06-14T11:21:17;33.30;47.80
10980;DHT22;5543;51.734;8.744;2023-06-14T11:23:50;33.00;45.70
10980;DHT22;5543;51.734;8.744;2023-06-14T11:26:27;32.60;43.90
10980;DHT22;5543;51.734;8.744;2023-06-14T11:28:56;32.40;47.00
10980;DHT22;5543;51.734;8.744;2023-06-14T11:31:25;32.80;45.00
10980;DHT22;5543;51.734;8.744;2023-06-14T11:33:54;33.60;44.80
10980;DHT22;5543;51.734;8.744;2023-06-14T11:36:26;34.30;42.60
10980;DHT22;5543;51.734;8.744;2023-06-14T11:39:01;35.00;42.60
10980;DHT22;5543;51.734;8.744;2023-06-14T11:41:36;36.00;41.90
10980;DHT22;5543;51.734;8.744;2023-06-14T11:44:06;35.60;40.90
10980;DHT22;5543;51.734;8.744;2023-06-14T11:46:34;35.70;39.70
10980;DHT22;5543;51.734;8.744;2023-06-14T11:49:03;36.50;41.20
10980;DHT22;5543;51.734;8.744;2023-06-14T11:51:32;36.60;38.80
10980;DHT22;5543;51.734;8.744;2023-06-14T11:54:02;37.40;39.90
10980;DHT22;5543;51.734;8.744;2023-06-14T11:56:31;37.50;38.40
10980;DHT22;5543;51.734;8.744;2023-06-14T11:59:02;37.60;39.40
10980;DHT22;5543;51.734;8.744;2023-06-14T12:01:36;38.30;37.40
10980;DHT22;5543;51.734;8.744;2023-06-14T12:04:05;38.50;35.60
10980;DHT22;5543;51.734;8.744;2023-06-14T12:06:33;37.00;37.60
10980;DHT22;5543;51.734;8.744;2023-06-14T12:09:03;36.60;39.90
10980;DHT22;5543;51.734;8.744;2023-06-14T12:11:34;35.80;37.80
10980;DHT22;5543;51.734;8.744;2023-06-14T12:14:05;35.90;39.90
10980;DHT22;5543;51.734;8.744;2023-06-14T12:16:34;36.30;39.20
10980;DHT22;5543;51.734;8.744;2023-06-14T12:19:11;35.70;38.60
10980;DHT22;5543;51.734;8.744;2023-06-14T12:21:40;35.30;39.30
10980;DHT22;5543;51.734;8.744;2023-06-14T12:24:09;35.10;41.40
10980;DHT22;5543;51.734;8.744;2023-06-14T12:26:39;34.10;40.50
10980;DHT22;5543;51.734;8.744;2023-06-14T12:29:10;32.90;42.00
10980;DHT22;5543;51.734;8.744;2023-06-14T12:31:40;32.70;41.40
10980;DHT22;5543;51.734;8.744;2023-06-14T12:34:09;32.60;41.70
10980;DHT22;5543;51.734;8.744;2023-06-14T12:36:37;32.00;40.70
10980;DHT22;5543;51.734;8.744;2023-06-14T12:39:11;31.60;42.80
10980;DHT22;5543;51.734;8.744;2023-06-14T12:41:39;31.50;41.50
10980;DHT22;5543;51.734;8.744;2023-06-14T12:44:10;31.70;43.80
10980;DHT22;5543;51.734;8.744;2023-06-14T12:46:38;31.90;43.20
10980;DHT22;5543;51.734;8.744;2023-06-14T12:49:09;31.10;42.70
10980;DHT22;5543;51.734;8.744;2023-06-14T12:51:38;30.20;44.80
10980;DHT22;5543;51.734;8.744;2023-06-14T12:54:07;29.30;46.60
10980;DHT22;5543;51.734;8.744;2023-06-14T12:56:35;29.50;47.30
10980;DHT22;5543;51.734;8.744;2023-06-14T12:59:03;30.10;47.40
10980;DHT22;5543;51.734;8.744;2023-06-14T13:01:34;29.90;45.30
10980;DHT22;5543;51.734;8.744;2023-06-14T13:04:02;30.40;46.10
10980;DHT22;5543;51.734;8.744;2023-06-14T13:06:30;30.00;44.70
10980;DHT22;5543;51.734;8.744;2023-06-14T13:08:59;30.60;46.40
10980;DHT22;5543;51.734;8.744;2023-06-14T13:11:28;31.40;46.20
10980;DHT22;5543;51.734;8.744;2023-06-14T13:13:56;31.70;44.50
10980;DHT22;5543;51.734;8.744;2023-06-14T13:16:26;32.00;41.60
10980;DHT22;5543;51.734;8.744;2023-06-14T13:18:56;31.50;41.70
10980;DHT22;5543;51.734;8.744;2023-06-14T13:21:24;31.40;43.10
10980;DHT22;5543;51.734;8.744;2023-06-14T13:23:52;31.10;43.20
10980;DHT22;5543;51.734;8.744;2023-06-14T13:26:20;30.40;46.10
10980;DHT22;5543;51.734;8.744;2023-06-14T13:28:48;29.80;47.10
10980;DHT22;5543;51.734;8.744;2023-06-14T13:31:18;29.40;46.50
10980;DHT22;5543;51.734;8.744;2023-06-14T13:33:46;29.00;47.90
10980;DHT22;5543;51.734;8.744;2023-06-14T13:36:16;28.60;48.40
10980;DHT22;5543;51.734;8.744;2023-06-14T13:38:44;27.90;49.60
10980;DHT22;5543;51.734;8.744;2023-06-14T13:41:15;27.80;48.30
10980;DHT22;5543;51.734;8.744;2023-06-14T13:43:43;28.60;47.90
10980;DHT22;5543;51.734;8.744;2023-06-14T13:46:11;28.20;47.50
10980;DHT22;5543;51.734;8.744;2023-06-14T13:48:39;27.90;50.20
10980;DHT22;5543;51.734;8.744;2023-06-14T13:51:07;27.60;50.00
10980;DHT22;5543;51.734;8.744;2023-06-14T13:53:37;27.80;50.10
10980;DHT22;5543;51.734;8.744;2023-06-14T13:56:05;28.50;48.90
10980;DHT22;5543;51.734;8.744;2023-06-14T13:58:33;29.30;49.50
10980;DHT22;5543;51.734;8.744;2023-06-14T14:01:01;29.90;45.00
10980;DHT22;5543;51.734;8.744;2023-06-14T14:03:30;29.40;46.90
10980;DHT22;5543;51.734;8.744;2023-06-14T14:05:58;28.90;47.90
10980;DHT22;5543;51.734;8.744;2023-06-14T14:08:29;28.40;48.00
10980;DHT22;5543;51.734;8.744;2023-06-14T14:10:59;27.80;49.40
10980;DHT22;5543;51.734;8.744;2023-06-14T14:13:28;27.50;48.40
10980;DHT22;5543;51.734;8.744;2023-06-14T14:15:56;27.00;49.80
10980;DHT22;5543;51.734;8.744;2023-06-14T14:18:24;26.80;50.00
10980;DHT22;5543;51.734;8.744;2023-06-14T14:20:55;26.50;49.70
10980;DHT22;5543;51.734;8.744;2023-06-14T14:23:23;26.00;50.80
10980;DHT22;5543;51.734;8.744;2023-06-14T14:25:51;26.20;52.60
10980;DHT22;5543;51.734;8.744;2023-06-14T14:28:22;26.40;53.50
10980;DHT22;5543;51.734;8.744;2023-06-14T14:30:50;26.80;50.60
10980;DHT22;5543;51.734;8.744;2023-06-14T14:33:18;27.10;50.70
10980;DHT22;5543;51.734;8.744;2023-06-14T14:35:46;27.70;50.20
10980;DHT22;5543;51.734;8.744;2023-06-14T14:38:15;27.80;48.30
10980;DHT22;5543;51.734;8.744;2023-06-14T14:40:43;27.70;51.80
10980;DHT22;5543;51.734;8.744;2023-06-14T14:43:12;27.40;51.50
10980;DHT22;5543;51.734;8.744;2023-06-14T14:45:42;27.00;50.80
10980;DHT22;5543;51.734;8.744;2023-06-14T14:48:10;26.40;51.40
10980;DHT22;5543;51.734;8.744;2023-06-14T14:50:38;25.80;51.80
10980;DHT22;5543;51.734;8.744;2023-06-14T14:53:06;25.40;51.20
10980;DHT22;5543;51.734;8.744;2023-06-14T14:55:35;25.40;53.50
10980;DHT22;5543;51.734;8.744;2023-06-14T14:58:04;25.70;52.80
10980;DHT22;5543;51.734;8.744;2023-06-14T15:00:33;25.90;52.60
10980;DHT22;5543;51.734;8.744;2023-06-14T15:03:03;26.10;50.90
10980;DHT22;5543;51.734;8.744;2023-06-14T15:05:32;26.40;50.80
10980;DHT22;5543;51.734;8.744;2023-06-14T15:08:00;26.60;51.10
10980;DHT22;5543;51.734;8.744;2023-06-14T15:10:28;26.80;50.40
10980;DHT22;5543;51.734;8.744;2023-06-14T15:12:56;26.60;50.80
10980;DHT22;5543;51.734;8.744;2023-06-14T15:15:25;26.10;52.50
10980;DHT22;5543;51.734;8.744;2023-06-14T15:17:53;25.90;51.90
10980;DHT22;5543;51.734;8.744;2023-06-14T15:20:23;25.90;52.50
10980;DHT22;5543;51.734;8.744;2023-06-14T15:22:51;26.10;52.40
10980;DHT22;5543;51.734;8.744;2023-06-14T15:25:20;26.30;51.70
10980;DHT22;5543;51.734;8.744;2023-06-14T15:27:48;26.90;53.60
10980;DHT22;5543;51.734;8.744;2023-06-14T15:30:17;27.30;49.70
10980;DHT22;5543;51.734;8.744;2023-06-14T15:32:45;27.20;50.20
10980;DHT22;5543;51.734;8.744;2023-06-14T15:35:15;26.90;50.60
10980;DHT22;5543;51.734;8.744;2023-06-14T15:37:46;26.40;52.00
10980;DHT22;5543;51.734;8.744;2023-06-14T15:40:15;25.90;53.20
10980;DHT22;5543;51.734;8.744;2023-06-14T15:42:44;25.50;53.10
10980;DHT22;5543;51.734;8.744;2023-06-14T15:45:13;25.10;53.70
10980;DHT22;5543;51.734;8.744;2023-06-14T15:47:42;25.20;53.50
10980;DHT22;5543;51.734;8.744;2023-06-14T15:50:11;25.20;55.00
10980;DHT22;5543;51.734;8.744;2023-06-14T15:52:40;25.20;55.20
10980;DHT22;5543;51.734;8.744;2023-06-14T15:55:10;25.20;55.00
10980;DHT22;5543;51.734;8.744;2023-06-14T15:57:38;25.10;55.20
10980;DHT22;5543;51.734;8.744;2023-06-14T16:00:07;25.10;56.40
10980;DHT22;5543;51.734;8.744;2023-06-14T16:02:36;25.20;55.20
10980;DHT22;5543;51.734;8.744;2023-06-14T16:05:05;25.40;55.00